Time;durP1;ratioP1;P1;durP2;ratioP2;P2;SDS_P1;SDS_P2;PMS_P1;PMS_P2;Temp;Humidity;BMP_temperature;BMP_pressure;BME280_temperature;BME280_humidity;BME280_pressure;Samples;Min_cycle;Max_cycle;Signal;HPM_P1;HPM_P2
2024/03/01 00:00:43;;;;;;;11.60;4.00;;;;;;;6.77;68.28;91787.63;2071612;69;20143;-77
2024/03/01 00:03:09;;;;;;;17.42;3.20;;;;;;;6.53;69.27;91787.63;2071537;69;20175;-75
2024/03/01 00:05:35;;;;;;;14.07;3.38;;;;;;;6.73;68.54;91790.91;2071538;69;20172;-76
2024/03/01 00:08:00;;;;;;;13.80;3.38;;;;;;;6.70;69.07;91786.56;2071533;69;20573;-75
2024/03/01 00:10:26;;;;;;;12.52;3.13;;;;;;;6.80;68.32;91783.63;2068271;69;20148;-74
2024/03/01 00:12:53;;;;;;;15.20;3.20;;;;;;;6.72;68.29;91786.66;2071691;69;20213;-75
2024/03/01 00:15:19;;;;;;;12.65;3.55;;;;;;;6.69;68.77;91787.16;2072020;69;20168;-76
2024/03/01 00:17:44;;;;;;;10.55;3.13;;;;;;;6.59;69.16;91784.47;2068200;69;20168;-77
2024/03/01 00:23:57;;;;;;;12.10;3.05;;;;;;;6.57;69.21;91782.28;2071588;69;20126;-78
2024/03/01 00:26:25;;;;;;;10.88;3.30;;;;;;;6.41;69.32;91783.38;2068132;69;20235;-77
2024/03/01 00:28:52;;;;;;;14.05;3.20;;;;;;;6.57;69.05;91775.97;2071490;69;20176;-78
2024/03/01 00:31:18;;;;;;;14.02;2.75;;;;;;;6.45;69.07;91750.78;2071506;69;20221;-78
2024/03/01 00:33:44;;;;;;;12.00;2.72;;;;;;;6.67;69.33;91771.00;2071375;69;20279;-78
2024/03/01 00:36:10;;;;;;;9.65;2.45;;;;;;;6.74;68.99;91778.41;2071372;69;20516;-79
2024/03/01 00:38:35;;;;;;;10.80;3.03;;;;;;;6.57;69.31;91775.97;2071614;69;20172;-78
2024/03/01 00:41:01;;;;;;;12.52;2.80;;;;;;;6.66;69.86;91771.59;2071872;69;20230;-77
2024/03/01 00:43:27;;;;;;;10.57;2.38;;;;;;;6.69;69.10;91764.78;2071960;69;20132;-76
2024/03/01 00:45:53;;;;;;;10.65;2.63;;;;;;;6.74;69.17;91769.28;2071995;69;20151;-75
2024/03/01 00:48:18;;;;;;;14.55;3.03;;;;;;;6.70;68.97;91766.97;2072075;69;20243;-77
2024/03/01 00:50:44;;;;;;;15.38;2.30;;;;;;;6.82;68.68;91775.34;2072106;69;20176;-77
2024/03/01 00:53:10;;;;;;;13.38;2.40;;;;;;;6.87;69.14;91763.81;2071853;69;20510;-76
2024/03/01 00:55:36;;;;;;;13.30;2.72;;;;;;;6.95;69.62;91751.63;2068518;69;20152;-77
2024/03/01 00:58:01;;;;;;;13.18;2.75;;;;;;;7.04;67.98;91754.28;2071954;69;20221;-75
2024/03/01 01:00:28;;;;;;;14.63;2.80;;;;;;;6.73;69.33;91737.78;2072000;69;20156;-76
2024/03/01 01:02:54;;;;;;;10.07;2.42;;;;;;;6.63;69.98;91746.28;2068412;69;20147;-76
2024/03/01 01:05:22;;;;;;;15.50;2.33;;;;;;;6.78;68.64;91739.50;2071913;69;20164;-75
2024/03/01 01:07:48;;;;;;;11.43;2.92;;;;;;;6.71;67.99;91740.47;2071953;69;20140;-76
2024/03/01 01:10:13;;;;;;;10.50;2.60;;;;;;;6.76;68.45;91744.22;2071766;69;20536;-77
2024/03/01 01:12:39;;;;;;;15.88;2.60;;;;;;;6.72;68.99;91735.59;2068580;69;20136;-74
2024/03/01 01:15:05;;;;;;;11.82;2.70;;;;;;;6.68;69.07;91738.88;2068652;69;20591;-76
2024/03/01 01:17:31;;;;;;;16.45;3.33;;;;;;;6.71;68.82;91734.16;2071958;69;20495;-78
2024/03/01 01:19:58;;;;;;;15.43;3.08;;;;;;;6.72;68.42;91736.31;2072729;69;20168;-75
2024/03/01 01:22:25;;;;;;;14.60;3.35;;;;;;;6.80;68.17;91734.00;2068606;69;20148;-75
2024/03/01 01:24:51;;;;;;;13.93;2.17;;;;;;;6.79;69.44;91721.38;2071254;69;20140;-74
2024/03/01 01:27:17;;;;;;;14.80;2.63;;;;;;;6.86;69.44;91716.84;2071387;69;20168;-74
2024/03/01 01:29:43;;;;;;;10.27;2.78;;;;;;;6.81;68.65;91718.69;2071476;69;20135;-75
2024/03/01 01:32:09;;;;;;;10.55;2.92;;;;;;;6.61;69.55;91717.50;2071608;69;20151;-75
2024/03/01 01:34:35;;;;;;;7.28;2.58;;;;;;;6.73;68.37;91709.06;2071484;69;20164;-74
2024/03/01 01:40:50;;;;;;;11.80;2.75;;;;;;;6.71;68.49;91700.59;2071861;69;20139;-75
2024/03/01 01:43:16;;;;;;;19.02;2.88;;;;;;;6.13;68.75;91632.19;2065823;69;20152;-76
2024/03/01 01:45:42;;;;;;;12.05;2.42;;;;;;;6.62;68.90;91704.97;2071636;69;20152;-75
2024/03/01 01:48:08;;;;;;;14.30;3.00;;;;;;;6.22;70.10;91697.69;2071297;69;20480;-74
2024/03/01 01:50:35;;;;;;;8.13;2.80;;;;;;;6.38;70.65;91695.16;2071465;69;20150;-74
2024/03/01 01:53:02;;;;;;;16.65;2.50;;;;;;;6.34;70.17;91679.59;2071579;69;20556;-75
2024/03/01 01:55:29;;;;;;;15.45;2.90;;;;;;;6.56;69.71;91694.16;2071630;69;20203;-74
2024/03/01 01:57:56;;;;;;;11.63;2.17;;;;;;;6.59;68.42;91692.19;2068328;69;20619;-74
2024/03/01 02:00:22;;;;;;;7.47;2.78;;;;;;;6.60;68.60;91702.78;2071665;69;20160;-77
2024/03/01 02:02:50;;;;;;;11.38;2.90;;;;;;;6.60;69.31;91705.59;2068204;69;20523;-74
2024/03/01 02:05:18;;;;;;;9.90;2.58;;;;;;;6.56;69.07;91696.97;2068235;69;20196;-74
2024/03/01 02:11:32;;;;;;;14.13;2.55;;;;;;;6.45;70.09;91692.09;2071617;69;20222;-75
2024/03/01 02:13:58;;;;;;;14.25;2.60;;;;;;;6.54;69.99;91688.44;2071364;69;20222;-75
2024/03/01 02:16:24;;;;;;;11.88;2.85;;;;;;;6.65;68.96;91691.84;2071655;69;20607;-75
2024/03/01 02:18:50;;;;;;;12.23;2.55;;;;;;;6.67;68.94;91683.56;2068204;69;20520;-75
2024/03/01 02:21:23;;;;;;;11.88;2.63;;;;;;;6.56;69.36;91679.44;2068350;69;20618;-75
2024/03/01 02:27:37;;;;;;;14.63;2.90;;;;;;;6.60;69.68;91671.31;2071100;69;20165;-75
2024/03/01 02:30:03;;;;;;;11.45;2.95;;;;;;;6.55;69.17;91667.53;2071609;69;20591;-75
2024/03/01 02:32:29;;;;;;;10.35;2.72;;;;;;;6.55;68.58;91664.75;2071411;69;20185;-75
2024/03/01 02:34:54;;;;;;;11.90;2.78;;;;;;;6.23;70.26;91660.00;2071587;69;20574;-75
2024/03/01 02:37:20;;;;;;;12.02;2.90;;;;;;;6.42;69.89;91656.97;2071308;69;20256;-75
2024/03/01 02:39:45;;;;;;;15.98;2.50;;;;;;;6.51;69.79;91650.53;2071630;69;20560;-75
2024/03/01 02:42:11;;;;;;;9.52;2.70;;;;;;;6.42;70.26;91664.63;2071224;69;20156;-75
2024/03/01 02:44:37;;;;;;;11.10;2.75;;;;;;;6.41;69.70;91661.09;2071592;69;20620;-75
2024/03/01 02:47:02;;;;;;;18.25;2.78;;;;;;;6.29;70.84;91657.59;2064978;69;20148;-75
2024/03/01 02:49:28;;;;;;;8.02;2.30;;;;;;;6.22;70.75;91650.19;2071832;69;20156;-75
2024/03/01 02:51:54;;;;;;;16.95;2.88;;;;;;;6.41;70.62;91657.56;2071708;69;20125;-75
2024/03/01 02:54:19;;;;;;;11.93;3.10;;;;;;;6.44;70.29;91657.09;2068136;69;20159;-74
2024/03/01 02:56:45;;;;;;;9.05;2.50;;;;;;;6.36;71.37;91654.53;2071606;69;20156;-75
2024/03/01 02:59:11;;;;;;;12.02;2.97;;;;;;;6.38;70.88;91642.03;2071466;69;20148;-75
2024/03/01 03:01:36;;;;;;;11.85;2.97;;;;;;;6.36;71.06;91640.56;2071072;69;20156;-75
2024/03/01 03:04:03;;;;;;;10.25;2.72;;;;;;;6.10;71.49;91627.84;2067966;69;20153;-75
2024/03/01 03:06:29;;;;;;;9.00;2.97;;;;;;;6.03;72.59;91637.19;2071451;69;20627;-75
2024/03/01 03:08:54;;;;;;;13.98;2.78;;;;;;;6.24;71.28;91633.53;2071569;69;20161;-74
2024/03/01 03:15:08;;;;;;;11.98;3.00;;;;;;;6.30;71.28;91631.81;2071408;69;20213;-75
2024/03/01 03:17:35;;;;;;;11.20;2.50;;;;;;;6.24;70.84;91623.09;2067541;69;20508;-75
2024/03/01 03:20:09;;;;;;;14.48;3.33;;;;;;;6.10;72.06;91613.88;2071427;69;20179;-74
2024/03/01 03:22:47;;;;;;;7.35;2.65;;;;;;;6.31;71.15;91616.50;2071505;69;20188;-75
2024/03/01 03:25:13;;;;;;;14.15;3.17;;;;;;;6.24;71.32;91622.38;2071450;69;20145;-75
2024/03/01 03:27:41;;;;;;;15.18;3.60;;;;;;;6.18;70.89;91619.19;2071294;69;20657;-75
2024/03/01 03:30:07;;;;;;;12.75;3.70;;;;;;;6.18;71.17;91608.75;2071230;69;20141;-75
2024/03/01 03:32:33;;;;;;;14.02;3.63;;;;;;;6.09;71.98;91617.97;2071121;69;20238;-74
2024/03/01 03:34:59;;;;;;;15.93;3.00;;;;;;;5.97;72.85;91622.84;2071423;69;20163;-75
2024/03/01 03:37:25;;;;;;;9.82;2.58;;;;;;;6.22;71.51;91616.63;2071448;69;20168;-75
2024/03/01 03:39:51;;;;;;;15.48;2.80;;;;;;;6.58;69.90;91623.63;2071265;69;20137;-75
2024/03/01 03:42:16;;;;;;;14.00;3.17;;;;;;;6.59;70.01;91616.69;2071382;69;20612;-76
2024/03/01 03:44:42;;;;;;;12.38;2.88;;;;;;;6.38;70.59;91630.84;2071310;69;20286;-75
2024/03/01 03:47:08;;;;;;;13.48;3.00;;;;;;;6.48;70.33;91623.06;2071316;69;20140;-75
2024/03/01 03:49:39;;;;;;;11.02;2.83;;;;;;;6.53;69.74;91622.66;2071442;69;20148;-76
2024/03/01 03:52:05;;;;;;;14.45;3.15;;;;;;;6.26;70.78;91614.81;2068259;69;20673;-76
2024/03/01 03:54:31;;;;;;;13.60;3.80;;;;;;;6.55;69.23;91611.63;2071466;69;20148;-75
2024/03/01 03:56:57;;;;;;;8.60;2.72;;;;;;;6.28;70.74;91612.16;2071458;69;20147;-75
2024/03/01 03:59:23;;;;;;;9.50;2.83;;;;;;;6.33;70.51;91605.47;2071524;69;20234;-77
2024/03/01 04:01:49;;;;;;;10.57;2.58;;;;;;;6.44;70.79;91617.94;2071348;69;20573;-75
2024/03/01 04:04:15;;;;;;;11.40;2.53;;;;;;;6.46;70.65;91618.09;2071353;69;20599;-75
2024/03/01 04:06:41;;;;;;;9.40;3.45;;;;;;;6.50;70.39;91611.97;2067734;69;20209;-75
2024/03/01 04:09:09;;;;;;;8.57;2.63;;;;;;;6.51;70.22;91622.56;2071226;69;20164;-75
2024/03/01 04:11:40;;;;;;;10.90;2.50;;;;;;;6.53;70.08;91622.66;2071343;69;20234;-74
2024/03/01 04:14:09;;;;;;;14.48;3.05;;;;;;;6.53;70.16;91619.88;2071130;69;20176;-75
2024/03/01 04:16:35;;;;;;;14.55;2.50;;;;;;;6.51;70.19;91621.84;2071446;69;20241;-75
2024/03/01 04:22:49;;;;;;;15.90;2.90;;;;;;;6.62;70.37;91629.47;2071854;69;20207;-75
2024/03/01 04:25:14;;;;;;;9.98;2.65;;;;;;;6.73;70.05;91625.91;2071809;69;20213;-75
2024/03/01 04:27:40;;;;;;;13.52;2.90;;;;;;;6.74;69.85;91618.97;2068403;69;20598;-75
2024/03/01 04:30:09;;;;;;;14.75;3.58;;;;;;;6.68;69.85;91618.63;2071839;69;20237;-75
2024/03/01 04:32:35;;;;;;;14.73;3.00;;;;;;;6.75;70.36;91617.63;2071591;69;20584;-75
2024/03/01 04:35:01;;;;;;;15.20;2.80;;;;;;;6.82;70.22;91615.91;2071760;69;20239;-74
2024/03/01 04:37:26;;;;;;;14.32;2.97;;;;;;;6.60;71.21;91626.56;2071671;69;20144;-75
2024/03/01 04:43:40;;;;;;;14.20;3.00;;;;;;;6.52;71.09;91612.84;2071535;69;20154;-75
2024/03/01 04:46:05;;;;;;;15.75;2.70;;;;;;;6.73;71.07;91611.19;2068385;69;20175;-75
2024/03/01 04:48:31;;;;;;;14.57;3.17;;;;;;;6.75;70.15;91612.03;2068392;69;20148;-74
2024/03/01 04:54:44;;;;;;;14.55;3.50;;;;;;;6.59;71.02;91611.81;2071683;69;20590;-75
2024/03/01 04:57:09;;;;;;;8.75;2.85;;;;;;;6.82;70.42;91608.22;2071690;69;20691;-75
2024/03/01 04:59:38;;;;;;;11.85;2.70;;;;;;;6.54;71.54;91601.03;2071819;69;20176;-74
2024/03/01 05:02:07;;;;;;;15.90;3.63;;;;;;;6.74;71.04;91607.78;2071242;69;20155;-74
2024/03/01 05:04:33;;;;;;;20.80;3.83;;;;;;;6.83;69.91;91595.72;2071795;69;20137;-75
2024/03/01 05:06:59;;;;;;;15.65;3.80;;;;;;;6.80;70.52;91596.22;2071600;69;20171;-74
2024/03/01 05:09:24;;;;;;;17.55;4.15;;;;;;;6.90;70.21;91598.84;2071472;69;20243;-74
2024/03/01 05:11:50;;;;;;;16.45;4.20;;;;;;;6.93;69.81;91606.75;2071420;69;20144;-75
2024/03/01 05:14:15;;;;;;;17.20;4.13;;;;;;;6.86;70.11;91607.75;2071648;69;20167;-74
2024/03/01 05:20:30;;;;;;;19.85;4.70;;;;;;;6.99;70.11;91609.88;2071746;69;20111;-74
2024/03/01 05:22:56;;;;;;;15.40;4.05;;;;;;;6.98;70.98;91614.03;2071739;69;20144;-75
2024/03/01 05:25:22;;;;;;;16.00;4.45;;;;;;;6.97;70.57;91604.19;2071690;69;20524;-74
2024/03/01 05:27:49;;;;;;;15.25;3.85;;;;;;;7.02;70.92;91608.66;2068121;69;20132;-75
2024/03/01 05:30:18;;;;;;;9.98;3.75;;;;;;;7.08;70.17;91616.66;2071704;69;20140;-76
2024/03/01 05:32:48;;;;;;;17.75;4.50;;;;;;;7.08;69.79;91616.66;2068113;69;20152;-75
2024/03/01 05:35:16;;;;;;;15.30;3.72;;;;;;;6.93;70.36;91617.94;2071800;69;20176;-75
2024/03/01 05:37:43;;;;;;;17.52;4.55;;;;;;;6.89;70.71;91623.31;2071669;69;20147;-74
2024/03/01 05:40:12;;;;;;;15.38;4.13;;;;;;;7.05;69.92;91624.22;2071836;69;20596;-74
2024/03/01 05:42:39;;;;;;;21.77;4.18;;;;;;;6.97;70.57;91628.66;2071614;69;20214;-75
2024/03/01 05:45:07;;;;;;;17.95;4.32;;;;;;;7.11;69.54;91623.84;2068014;69;20133;-75
2024/03/01 05:47:35;;;;;;;18.52;3.90;;;;;;;7.10;70.17;91625.91;2071470;69;20497;-75
2024/03/01 05:50:02;;;;;;;15.95;3.97;;;;;;;7.16;70.06;91636.72;2071361;69;20750;-75
2024/03/01 05:52:28;;;;;;;16.17;4.65;;;;;;;7.14;69.91;91628.19;2071641;69;20153;-74
2024/03/01 05:54:55;;;;;;;19.20;5.20;;;;;;;6.94;71.09;91627.06;2071632;69;20152;-74
2024/03/01 05:57:21;;;;;;;20.85;5.40;;;;;;;7.12;70.15;91628.09;2071473;69;20151;-74
2024/03/01 05:59:47;;;;;;;15.95;4.68;;;;;;;7.18;70.40;91624.91;2071748;69;20232;-74
2024/03/01 06:02:13;;;;;;;14.85;4.90;;;;;;;7.17;70.79;91620.66;2071069;69;20507;-75
2024/03/01 06:04:39;;;;;;;15.48;5.40;;;;;;;7.10;70.93;91633.56;2071595;69;20146;-75
2024/03/01 06:07:05;;;;;;;18.00;5.03;;;;;;;7.22;70.40;91642.66;2071378;69;20591;-75
2024/03/01 06:09:31;;;;;;;22.50;7.38;;;;;;;7.04;71.24;91636.75;2071517;69;20133;-75
2024/03/01 06:11:56;;;;;;;20.00;6.78;;;;;;;6.92;71.56;91638.13;2071634;69;20148;-75
2024/03/01 06:14:22;;;;;;;23.00;6.70;;;;;;;7.01;70.75;91629.59;2071655;69;20160;-75
2024/03/01 06:16:47;;;;;;;17.58;6.55;;;;;;;7.18;69.89;91642.41;2071455;69;20128;-75
2024/03/01 06:19:13;;;;;;;23.77;6.10;;;;;;;7.18;69.99;91641.69;2068167;69;20164;-76
2024/03/01 06:21:39;;;;;;;18.73;6.88;;;;;;;7.21;70.91;91644.00;2071677;69;20133;-77
2024/03/01 06:24:05;;;;;;;16.77;6.78;;;;;;;7.25;70.84;91649.81;2072008;69;20291;-81
2024/03/01 06:26:30;;;;;;;25.02;6.88;;;;;;;7.28;70.29;91642.97;2071799;69;20615;-78
2024/03/01 06:28:56;;;;;;;14.00;6.07;;;;;;;7.12;71.52;91650.47;2071766;69;20192;-78
2024/03/01 06:31:21;;;;;;;18.10;6.40;;;;;;;7.18;71.21;91642.41;2071724;69;20155;-80
2024/03/01 06:33:47;;;;;;;23.85;7.07;;;;;;;7.24;70.68;91642.03;2071595;69;20157;-78
2024/03/01 06:36:13;;;;;;;20.55;6.72;;;;;;;7.19;71.21;91629.88;2071573;69;20523;-77
2024/03/01 06:38:38;;;;;;;22.40;7.30;;;;;;;7.24;71.50;91644.81;2071644;69;20152;-77
2024/03/01 06:41:05;;;;;;;19.55;7.32;;;;;;;7.33;71.10;91644.69;2071793;69;20128;-80
2024/03/01 06:43:31;;;;;;;18.80;7.45;;;;;;;7.48;69.07;91637.06;2071636;69;20583;-79
2024/03/01 06:45:57;;;;;;;21.48;7.22;;;;;;;7.23;71.06;91641.28;2068310;69;20214;-77
2024/03/01 06:52:10;;;;;;;19.90;6.57;;;;;;;7.51;69.93;91644.94;2071748;69;20158;-76
2024/03/01 06:54:35;;;;;;;18.27;6.75;;;;;;;7.56;70.56;91652.22;2068420;69;20231;-76
2024/03/01 06:57:01;;;;;;;23.88;7.30;;;;;;;7.52;70.86;91645.69;2071401;69;20140;-75
2024/03/01 06:59:27;;;;;;;22.35;6.82;;;;;;;7.48;70.61;91645.47;2071643;69;20262;-78
2024/03/01 07:01:53;;;;;;;23.85;6.88;;;;;;;7.55;70.26;91650.03;2071566;69;20140;-77
2024/03/01 07:04:19;;;;;;;58.60;16.33;;;;;;;7.70;70.26;91652.28;2071693;69;20288;-76
2024/03/01 07:06:45;;;;;;;79.20;24.85;;;;;;;7.74;69.84;91658.06;2071746;69;20141;-77
2024/03/01 07:09:11;;;;;;;51.38;16.13;;;;;;;7.70;70.62;91646.69;2071701;69;20132;-80
2024/03/01 07:11:36;;;;;;;60.95;19.70;;;;;;;7.80;70.85;91649.28;2071653;69;20253;-79
2024/03/01 07:14:03;;;;;;;45.92;15.52;;;;;;;7.83;70.30;91650.84;2071757;69;20176;-77
2024/03/01 07:16:28;;;;;;;52.97;19.65;;;;;;;7.64;70.97;91649.13;2071608;69;20152;-74
2024/03/01 07:18:54;;;;;;;49.90;20.23;;;;;;;7.83;70.78;91645.22;2071611;69;20140;-74
2024/03/01 07:21:20;;;;;;;38.90;15.50;;;;;;;7.67;71.08;91653.50;2071660;69;20192;-74
2024/03/01 07:23:45;;;;;;;22.67;8.02;;;;;;;7.45;71.09;91660.69;2071782;69;20291;-75
2024/03/01 07:26:11;;;;;;;20.38;7.80;;;;;;;7.44;72.29;91665.56;2071355;69;20140;-75
2024/03/01 07:28:41;;;;;;;25.70;8.35;;;;;;;7.83;71.28;91654.38;2071403;69;20163;-76
2024/03/01 07:31:07;;;;;;;25.65;10.32;;;;;;;7.67;71.67;91653.50;2071925;69;20148;-78
2024/03/01 07:33:32;;;;;;;24.63;8.35;;;;;;;7.74;71.39;91665.75;2071394;69;20479;-74
2024/03/01 07:35:58;;;;;;;21.58;7.70;;;;;;;8.02;70.41;91658.16;2071403;69;20143;-75
2024/03/01 07:38:23;;;;;;;22.95;8.70;;;;;;;8.15;70.52;91663.03;2071607;69;20680;-76
2024/03/01 07:40:49;;;;;;;26.75;11.48;;;;;;;8.16;70.89;91667.34;2068189;69;20189;-76
2024/03/01 07:43:14;;;;;;;35.35;14.43;;;;;;;8.24;69.67;91667.72;2071729;69;20140;-76
2024/03/01 07:45:40;;;;;;;32.03;13.23;;;;;;;8.04;69.88;91667.41;2068370;69;20174;-76
2024/03/01 07:48:06;;;;;;;23.13;8.70;;;;;;;7.45;73.75;91672.59;2071585;69;20195;-76
2024/03/01 07:50:32;;;;;;;23.88;9.05;;;;;;;7.86;72.33;91675.56;2071487;69;20140;-76
2024/03/01 07:52:58;;;;;;;23.27;8.27;;;;;;;8.22;71.11;91675.31;2068023;69;20511;-76
2024/03/01 07:55:24;;;;;;;25.10;7.82;;;;;;;8.27;69.51;91674.91;2068078;69;20312;-75
2024/03/01 07:57:49;;;;;;;20.48;7.75;;;;;;;8.48;70.18;91662.72;2071434;69;20578;-76
2024/03/01 08:00:16;;;;;;;22.38;7.95;;;;;;;8.57;69.94;91675.81;2068248;69;20136;-76
2024/03/01 08:02:41;;;;;;;23.13;8.57;;;;;;;8.65;70.03;91669.88;2068013;69;20643;-76
2024/03/01 08:05:09;;;;;;;22.98;7.28;;;;;;;8.77;68.06;91678.19;2071371;69;20294;-76
2024/03/01 08:07:34;;;;;;;17.63;7.05;;;;;;;8.81;67.65;91667.91;2071333;69;20140;-76
2024/03/01 08:10:00;;;;;;;21.77;7.43;;;;;;;8.12;71.23;91664.31;2071519;69;20147;-78
2024/03/01 08:12:27;;;;;;;21.13;8.25;;;;;;;8.35;71.50;91674.63;2071395;69;20148;-77
2024/03/01 08:14:53;;;;;;;25.05;9.75;;;;;;;8.59;70.78;91677.97;2071422;69;20147;-77
2024/03/01 08:17:21;;;;;;;45.40;21.20;;;;;;;8.66;70.02;91682.56;2071565;69;20684;-75
2024/03/01 08:19:48;;;;;;;31.80;14.88;;;;;;;8.96;69.20;91674.22;2071739;69;20202;-77
2024/03/01 08:22:19;;;;;;;26.65;10.43;;;;;;;8.99;68.36;91665.28;2071527;69;20137;-77
2024/03/01 08:24:47;;;;;;;29.35;13.20;;;;;;;8.67;69.70;91684.00;2071481;69;20153;-76
2024/03/01 08:27:22;;;;;;;33.08;12.45;;;;;;;8.62;68.85;91673.94;2071406;69;20179;-76
2024/03/01 08:29:48;;;;;;;28.85;11.00;;;;;;;9.09;68.31;91668.59;2071209;69;20232;-76
2024/03/01 08:36:01;;;;;;;22.27;9.40;;;;;;;9.49;66.79;91671.19;2071501;69;20499;-77
2024/03/01 08:38:39;;;;;;;32.33;14.07;;;;;;;9.26;67.95;91672.91;2071411;69;20608;-76
2024/03/01 08:41:06;;;;;;;26.45;12.15;;;;;;;9.54;66.90;91675.66;2071447;69;20164;-77
2024/03/01 08:43:31;;;;;;;25.83;10.20;;;;;;;9.55;66.16;91666.59;2068038;69;20172;-76
2024/03/01 08:46:27;;;;;;;22.15;9.65;;;;;;;9.55;67.09;91663.06;2071397;69;20187;-77
2024/03/01 08:48:52;;;;;;;20.88;7.43;;;;;;;9.56;66.26;91661.69;2071207;69;20152;-77
2024/03/01 08:51:19;;;;;;;19.52;7.18;;;;;;;9.55;66.69;91660.97;2071334;69;20176;-76
2024/03/01 08:54:02;;;;;;;21.63;8.18;;;;;;;9.99;65.38;91663.69;2068083;69;20219;-77
2024/03/01 08:56:31;;;;;;;;;;;;;;;10.22;64.22;91663.38;2071546;69;20172;-77
2024/03/01 08:58:57;;;;;;;22.00;7.35;;;;;;;10.06;64.14;91646.47;2071425;69;20074;-77
2024/03/01 09:01:37;;;;;;;21.60;7.28;;;;;;;10.09;64.18;91658.53;2071422;69;20140;-75
2024/03/01 09:04:14;;;;;;;18.10;7.72;;;;;;;10.32;64.29;91663.13;2071839;69;20194;-78
2024/03/01 09:06:40;;;;;;;21.27;8.30;;;;;;;10.43;64.10;91662.91;2072058;69;20152;-78
2024/03/01 09:09:08;;;;;;;26.75;8.43;;;;;;;10.57;63.55;91662.81;2068560;69;20132;-78
2024/03/01 09:11:34;;;;;;;19.65;8.40;;;;;;;10.59;63.02;91665.03;2071930;69;20592;-77
2024/03/01 09:13:59;;;;;;;20.40;8.02;;;;;;;10.10;63.69;91666.34;2071957;69;20144;-77
2024/03/01 09:16:25;;;;;;;19.85;7.57;;;;;;;10.36;63.41;91655.59;2071852;69;20144;-77
2024/03/01 09:18:51;;;;;;;25.02;7.45;;;;;;;10.08;64.25;91662.69;2071899;69;20588;-77
2024/03/01 09:21:41;;;;;;;18.17;6.63;;;;;;;10.22;64.35;91657.75;2071980;69;20608;-75
2024/03/01 09:24:11;;;;;;;21.95;7.43;;;;;;;10.39;64.15;91667.63;2071959;69;20198;-78
2024/03/01 09:26:37;;;;;;;25.15;7.32;;;;;;;10.54;63.93;91657.75;2071785;69;20140;-77
2024/03/01 09:29:05;;;;;;;25.20;8.48;;;;;;;10.55;64.10;91665.56;2071709;69;20582;-75
2024/03/01 09:31:34;;;;;;;27.02;7.35;;;;;;;10.75;63.03;91660.09;2071850;69;20247;-77
2024/03/01 09:34:10;;;;;;;25.00;7.82;;;;;;;10.76;62.27;91658.72;2071815;69;20213;-77
2024/03/01 09:36:36;;;;;;;20.92;6.93;;;;;;;10.68;62.52;91653.47;2071818;69;20228;-76
2024/03/01 09:39:06;;;;;;;23.25;6.95;;;;;;;10.90;62.23;91650.16;2072126;69;20172;-77
2024/03/01 09:41:43;;;;;;;17.50;5.55;;;;;;;10.52;62.40;91652.03;2071849;69;20213;-76
2024/03/01 09:44:12;;;;;;;16.33;4.85;;;;;;;10.82;62.07;91656.19;2071995;69;20148;-75
2024/03/01 09:46:51;;;;;;;19.23;5.72;;;;;;;10.69;61.78;91646.47;2071675;69;20156;-78
2024/03/01 09:49:31;;;;;;;18.08;5.25;;;;;;;10.88;61.72;91647.97;2072033;69;20247;-76
2024/03/01 09:52:43;;;;;;;15.15;5.72;;;;;;;11.01;61.60;91654.13;2071776;69;20174;-77
2024/03/01 09:55:23;;;;;;;18.65;6.70;;;;;;;11.12;60.96;91648.28;2057680;69;20661;-76
2024/03/01 09:58:10;;;;;;;23.17;9.00;;;;;;;11.34;60.97;91647.75;2057677;69;20647;-77
2024/03/01 10:00:45;;;;;;;20.25;5.13;;;;;;;11.13;60.39;91641.31;2067562;69;20530;-78
2024/03/01 10:03:17;;;;;;;18.15;4.80;;;;;;;11.16;60.39;91640.00;2068496;69;20255;-78
2024/03/01 10:09:52;;;;;;;14.30;4.43;;;;;;;11.34;60.06;91637.22;2071700;69;20204;-78
2024/03/01 10:12:53;;;;;;;15.93;5.60;;;;;;;11.25;60.39;91637.53;2071631;69;20195;-78
2024/03/01 10:15:50;;;;;;;20.30;5.45;;;;;;;10.84;62.18;91642.19;2071840;69;20160;-79
2024/03/01 10:18:19;;;;;;;15.52;5.13;;;;;;;11.32;61.22;91642.06;2071693;69;20168;-78
2024/03/01 10:21:02;;;;;;;18.08;4.43;;;;;;;10.53;63.34;91640.13;2071824;69;20221;-78
2024/03/01 10:23:53;;;;;;;15.73;4.50;;;;;;;11.06;62.01;91633.97;2071906;69;20231;-76
2024/03/01 10:26:27;;;;;;;17.80;4.75;;;;;;;11.49;60.73;91638.50;2071932;69;20132;-78
2024/03/01 10:29:47;;;;;;;10.18;3.78;;;;;;;11.11;61.62;91637.66;2071683;69;20495;-78
2024/03/01 10:32:31;;;;;;;11.50;3.63;;;;;;;11.27;61.41;91640.41;2057476;69;20612;-78
2024/03/01 10:35:09;;;;;;;16.67;5.03;;;;;;;10.83;62.87;91629.47;2057631;69;20185;-78
2024/03/01 10:37:41;;;;;;;17.27;5.95;;;;;;;10.74;63.04;91641.03;2057570;69;20241;-77
2024/03/01 10:40:17;;;;;;;15.75;5.82;;;;;;;10.36;63.98;91633.09;2057617;69;20192;-77
2024/03/01 10:43:02;;;;;;;15.40;5.03;;;;;;;10.84;63.68;91636.53;2057499;69;20521;-77
2024/03/01 10:46:12;;;;;;;15.90;4.35;;;;;;;11.44;61.16;91639.72;2057462;69;20552;-77
2024/03/01 10:48:53;;;;;;;15.63;4.70;;;;;;;11.36;60.98;91636.56;2055727;69;20145;-77
2024/03/01 10:51:23;;;;;;;14.73;4.50;;;;;;;11.49;61.10;91637.78;2057492;69;20182;-76
2024/03/01 10:53:55;;;;;;;14.43;4.85;;;;;;;11.73;61.09;91624.69;2057383;69;20148;-77
2024/03/01 10:56:21;;;;;;;18.27;3.92;;;;;;;11.88;60.32;91637.25;2057708;69;20308;-77
2024/03/01 10:59:05;;;;;;;13.80;3.85;;;;;;;11.58;60.52;91631.09;2057578;69;20177;-77
2024/03/01 11:01:52;;;;;;;13.60;3.83;;;;;;;10.82;62.88;91627.31;2057553;69;20142;-76
2024/03/01 11:04:39;;;;;;;13.57;4.25;;;;;;;11.29;61.92;91623.63;2057386;69;20236;-76
2024/03/01 11:07:36;;;;;;;19.80;5.15;;;;;;;10.54;63.27;91621.19;2069649;69;20254;-80
2024/03/01 11:10:03;;;;;;;11.80;4.13;;;;;;;10.98;62.68;91616.00;2071742;69;20137;-78
2024/03/01 11:12:35;;;;;;;16.92;4.75;;;;;;;10.73;62.90;91617.78;2068072;69;20152;-77
2024/03/01 11:15:15;;;;;;;16.08;4.13;;;;;;;10.59;63.96;91608.75;2071565;69;20591;-77
2024/03/01 11:17:45;;;;;;;14.52;4.40;;;;;;;10.81;62.88;91600.50;2071560;69;20202;-77
2024/03/01 11:20:21;;;;;;;12.77;4.63;;;;;;;10.74;63.53;91610.06;2071607;69;20148;-77
2024/03/01 11:23:21;;;;;;;19.90;4.95;;;;;;;10.90;62.96;91605.09;2065531;69;20179;-78
2024/03/01 11:26:03;;;;;;;17.60;4.80;;;;;;;11.00;63.41;91599.91;2068646;69;20167;-78
2024/03/01 11:28:32;;;;;;;20.77;4.93;;;;;;;11.33;62.64;91601.97;2071545;69;20148;-76
2024/03/01 11:31:07;;;;;;;16.27;4.85;;;;;;;11.48;61.49;91594.78;2071573;69;20620;-77
2024/03/01 11:33:39;;;;;;;19.92;6.18;;;;;;;11.00;62.39;91605.56;2071408;69;20148;-78
2024/03/01 11:36:17;;;;;;;28.70;7.63;;;;;;;10.99;62.96;91592.81;2068420;69;20131;-79
2024/03/01 11:39:06;;;;;;;17.15;5.60;;;;;;;11.29;62.07;91598.25;2071600;69;20175;-78
2024/03/01 11:41:33;;;;;;;16.95;4.75;;;;;;;11.32;61.44;91594.88;2071637;69;20136;-78
2024/03/01 11:48:05;;;;;;;17.33;4.25;;;;;;;10.69;63.12;91581.03;2071170;69;20131;-77
2024/03/01 11:51:03;;;;;;;17.40;5.20;;;;;;;11.00;62.60;91583.03;2065472;69;20133;-77
2024/03/01 11:53:43;;;;;;;15.57;5.00;;;;;;;10.87;62.67;91587.41;2058929;69;20576;-78
2024/03/01 11:56:23;;;;;;;21.00;7.10;;;;;;;10.99;62.87;91598.44;2071565;69;20172;-78
2024/03/01 11:59:31;;;;;;;22.98;8.13;;;;;;;10.92;62.77;91588.31;2068267;69;20163;-78
2024/03/01 12:02:23;;;;;;;19.77;6.00;;;;;;;10.64;63.32;91593.47;2072352;69;20176;-78
2024/03/01 12:05:00;;;;;;;17.73;4.80;;;;;;;10.87;62.99;91590.22;2072041;69;20148;-77
2024/03/01 12:07:58;;;;;;;15.30;4.53;;;;;;;11.25;61.89;91592.47;2068121;69;20253;-77
2024/03/01 12:10:46;;;;;;;19.92;6.38;;;;;;;10.96;62.70;91579.31;2065446;69;20242;-76
2024/03/01 12:13:16;;;;;;;29.23;5.60;;;;;;;10.49;64.16;91574.50;2071472;69;20168;-77
2024/03/01 12:15:50;;;;;;;17.40;5.55;;;;;;;10.29;65.20;91583.53;2071433;69;20236;-77
2024/03/01 12:18:37;;;;;;;23.08;7.03;;;;;;;10.88;63.69;91580.41;2067928;69;20164;-78
2024/03/01 12:21:30;;;;;;;25.05;7.90;;;;;;;10.99;63.74;91581.56;2068455;69;20168;-77
2024/03/01 12:23:59;;;;;;;31.55;11.00;;;;;;;10.92;63.66;91579.88;2071432;69;20129;-78
2024/03/01 12:26:32;;;;;;;17.80;5.63;;;;;;;10.61;64.85;91577.84;2071388;69;20148;-77
2024/03/01 12:29:10;;;;;;;17.80;5.55;;;;;;;10.66;64.36;91582.28;2071287;69;20305;-78
2024/03/01 12:32:00;;;;;;;17.67;5.45;;;;;;;10.82;64.12;91580.16;2071265;69;20132;-77
2024/03/01 12:34:40;;;;;;;16.85;6.10;;;;;;;10.96;64.40;91574.41;2071259;69;20145;-78